createdAt,value
2018-10-16T00:00:18.736Z,1018.93
2018-10-16T00:01:46.172Z,1018.95
2018-10-16T00:03:13.617Z,1018.97
2018-10-16T00:04:41.053Z,1018.97
2018-10-16T00:06:08.581Z,1019.00
2018-10-16T00:07:36.167Z,1019.00
2018-10-16T00:09:03.453Z,1018.99
2018-10-16T00:10:33.771Z,1018.95
2018-10-16T00:11:58.216Z,1018.94
2018-10-16T00:13:25.460Z,1018.94
2018-10-16T00:14:52.926Z,1018.90
2018-10-16T00:16:20.417Z,1018.90
2018-10-16T00:17:47.805Z,1018.92
2018-10-16T00:19:15.123Z,1018.93
2018-10-16T00:20:42.313Z,1018.96
2018-10-16T00:22:09.703Z,1018.97
2018-10-16T00:23:37.101Z,1019.01
2018-10-16T00:25:04.597Z,1018.99
2018-10-16T00:26:32.019Z,1019.01
2018-10-16T00:27:59.474Z,1019.00
2018-10-16T00:29:26.983Z,1019.04
2018-10-16T00:30:54.564Z,1019.06
2018-10-16T00:32:21.854Z,1019.06
2018-10-16T00:33:49.155Z,1019.09
2018-10-16T00:35:16.557Z,1019.11
2018-10-16T00:36:43.841Z,1019.11
2018-10-16T00:38:11.314Z,1019.13
2018-10-16T00:39:38.857Z,1019.16
2018-10-16T00:41:06.325Z,1019.18
2018-10-16T00:42:36.657Z,1019.21
2018-10-16T00:44:01.002Z,1019.23
2018-10-16T00:45:28.400Z,1019.22
2018-10-16T00:46:55.686Z,1019.21
2018-10-16T00:48:23.180Z,1019.21
2018-10-16T00:49:50.653Z,1019.24
2018-10-16T00:51:18.050Z,1019.23
2018-10-16T00:52:45.473Z,1019.25
2018-10-16T00:54:12.813Z,1019.26
2018-10-16T00:55:40.124Z,1019.24
2018-10-16T00:57:07.489Z,1019.22
2018-10-16T00:58:34.931Z,1019.18
2018-10-16T01:00:02.423Z,1019.16
2018-10-16T01:01:29.818Z,1019.11
2018-10-16T01:02:57.162Z,1019.11
2018-10-16T01:04:24.614Z,1019.10
2018-10-16T01:05:51.945Z,1019.15
2018-10-16T01:07:19.350Z,1019.19
2018-10-16T01:08:46.644Z,1019.25
2018-10-16T01:10:14.058Z,1019.30
2018-10-16T01:11:41.457Z,1019.30
2018-10-16T01:13:08.931Z,1019.24
2018-10-16T01:14:36.229Z,1019.19
2018-10-16T01:16:03.570Z,1019.16
2018-10-16T01:17:31.097Z,1019.22
2018-10-16T01:18:58.558Z,1019.30
2018-10-16T01:20:25.922Z,1019.35
2018-10-16T01:21:53.232Z,1019.36
2018-10-16T01:23:20.587Z,1019.35
2018-10-16T01:24:47.981Z,1019.36
2018-10-16T01:26:15.386Z,1019.35
2018-10-16T01:27:42.905Z,1019.33
2018-10-16T01:29:10.310Z,1019.34
2018-10-16T01:30:37.781Z,1019.36
2018-10-16T01:32:05.183Z,1019.40
2018-10-16T01:33:32.622Z,1019.44
2018-10-16T01:35:00.016Z,1019.44
2018-10-16T01:36:27.442Z,1019.41
2018-10-16T01:37:54.789Z,1019.35
2018-10-16T01:39:22.091Z,1019.29
2018-10-16T01:40:49.666Z,1019.27
2018-10-16T01:42:17.059Z,1019.28
2018-10-16T01:43:44.341Z,1019.32
2018-10-16T01:45:11.646Z,1019.34
2018-10-16T01:46:39.020Z,1019.32
2018-10-16T01:48:06.216Z,1019.28
2018-10-16T01:49:33.554Z,1019.28
2018-10-16T01:51:00.999Z,1019.28
2018-10-16T01:52:28.324Z,1019.29
2018-10-16T01:53:55.609Z,1019.29
2018-10-16T01:55:22.877Z,1019.31
2018-10-16T01:56:50.343Z,1019.32
2018-10-16T01:58:17.924Z,1019.32
2018-10-16T01:59:45.259Z,1019.34
2018-10-16T02:01:12.656Z,1019.31
2018-10-16T02:02:40.117Z,1019.31
2018-10-16T02:04:07.464Z,1019.29
2018-10-16T02:05:35.041Z,1019.27
2018-10-16T02:07:02.406Z,1019.28
2018-10-16T02:08:29.868Z,1019.30
2018-10-16T02:09:57.279Z,1019.30
2018-10-16T02:11:24.658Z,1019.31
2018-10-16T02:12:52.086Z,1019.32
2018-10-16T02:14:19.632Z,1019.32
2018-10-16T02:15:47.048Z,1019.31
2018-10-16T02:17:14.484Z,1019.31
2018-10-16T02:18:41.618Z,1019.30
2018-10-16T02:20:08.912Z,1019.29
2018-10-16T02:21:36.346Z,1019.28
2018-10-16T02:23:03.681Z,1019.28
2018-10-16T02:24:30.962Z,1019.26
2018-10-16T02:25:58.243Z,1019.25
2018-10-16T02:27:25.653Z,1019.25
2018-10-16T02:28:53.132Z,1019.28
2018-10-16T02:30:20.460Z,1019.28
2018-10-16T02:31:47.751Z,1019.28
2018-10-16T02:33:15.178Z,1019.29
2018-10-16T02:34:42.791Z,1019.31
2018-10-16T02:36:10.047Z,1019.30
2018-10-16T02:37:37.336Z,1019.29
2018-10-16T02:39:04.729Z,1019.27
2018-10-16T02:40:32.123Z,1019.28
2018-10-16T02:41:59.409Z,1019.27
2018-10-16T02:43:26.773Z,1019.26
2018-10-16T02:44:54.150Z,1019.27
2018-10-16T02:46:21.517Z,1019.28
2018-10-16T02:47:48.934Z,1019.27
2018-10-16T02:49:16.318Z,1019.28
2018-10-16T02:50:43.801Z,1019.30
2018-10-16T02:52:11.262Z,1019.30
2018-10-16T02:53:38.357Z,1019.31
2018-10-16T02:55:05.638Z,1019.35
2018-10-16T02:56:32.984Z,1019.39
2018-10-16T02:58:00.461Z,1019.40
2018-10-16T02:59:27.903Z,1019.40
2018-10-16T03:00:55.400Z,1019.38
2018-10-16T03:02:22.841Z,1019.39
2018-10-16T03:03:50.255Z,1019.39
2018-10-16T03:05:17.627Z,1019.37
2018-10-16T03:06:44.932Z,1019.37
2018-10-16T03:08:12.355Z,1019.38
2018-10-16T03:09:39.750Z,1019.42
2018-10-16T03:11:07.068Z,1019.43
2018-10-16T03:12:34.431Z,1019.42
2018-10-16T03:14:01.838Z,1019.42
2018-10-16T03:15:29.081Z,1019.42
2018-10-16T03:16:56.551Z,1019.43
2018-10-16T03:18:23.796Z,1019.43
2018-10-16T03:19:51.181Z,1019.43
2018-10-16T03:21:18.513Z,1019.44
2018-10-16T03:22:45.912Z,1019.43
2018-10-16T03:24:13.329Z,1019.47
2018-10-16T03:25:40.796Z,1019.52
2018-10-16T03:27:08.099Z,1019.56
2018-10-16T03:28:35.529Z,1019.58
2018-10-16T03:30:02.825Z,1019.58
2018-10-16T03:31:30.261Z,1019.57
2018-10-16T03:32:57.411Z,1019.57
2018-10-16T03:34:24.858Z,1019.57
2018-10-16T03:35:52.131Z,1019.55
2018-10-16T03:37:19.498Z,1019.55
2018-10-16T03:38:46.916Z,1019.56
2018-10-16T03:40:14.011Z,1019.55
2018-10-16T03:41:41.376Z,1019.58
2018-10-16T03:43:08.681Z,1019.54
2018-10-16T03:44:36.110Z,1019.62
2018-10-16T03:46:03.379Z,1019.61
2018-10-16T03:47:30.854Z,1019.63
2018-10-16T03:48:58.217Z,1019.65
2018-10-16T03:50:25.617Z,1019.68
2018-10-16T03:51:53.114Z,1019.68
2018-10-16T03:53:20.618Z,1019.70
2018-10-16T03:54:48.050Z,1019.73
2018-10-16T03:56:15.427Z,1019.72
2018-10-16T03:57:42.770Z,1019.71
2018-10-16T03:59:10.058Z,1019.69
2018-10-16T04:00:37.432Z,1019.67
2018-10-16T04:02:04.652Z,1019.67
2018-10-16T04:03:32.087Z,1019.67
2018-10-16T04:04:59.483Z,1019.69
2018-10-16T04:06:26.718Z,1019.71
2018-10-16T04:07:54.054Z,1019.73
2018-10-16T04:09:21.319Z,1019.79
2018-10-16T04:10:48.729Z,1019.83
2018-10-16T04:12:16.126Z,1019.83
2018-10-16T04:13:43.486Z,1019.79
2018-10-16T04:15:10.768Z,1019.74
2018-10-16T04:16:37.989Z,1019.75
2018-10-16T04:18:05.369Z,1019.72
2018-10-16T04:19:32.720Z,1019.71
2018-10-16T04:20:59.953Z,1019.70
2018-10-16T04:22:27.424Z,1019.67
2018-10-16T04:23:54.898Z,1019.65
2018-10-16T04:25:22.326Z,1019.62
2018-10-16T04:26:49.695Z,1019.63
2018-10-16T04:28:17.037Z,1019.67
2018-10-16T04:29:44.437Z,1019.70
2018-10-16T04:31:11.744Z,1019.74
2018-10-16T04:32:39.209Z,1019.75
2018-10-16T04:34:06.575Z,1019.78
2018-10-16T04:35:34.095Z,1019.77
2018-10-16T04:37:01.386Z,1019.75
2018-10-16T04:38:28.681Z,1019.77
2018-10-16T04:39:56.021Z,1019.79
2018-10-16T04:41:23.303Z,1019.78
2018-10-16T04:42:50.728Z,1019.78
2018-10-16T04:44:18.123Z,1019.77
2018-10-16T04:45:45.538Z,1019.79
2018-10-16T04:47:12.963Z,1019.77
2018-10-16T04:48:40.447Z,1019.79
2018-10-16T04:50:07.724Z,1019.75
2018-10-16T04:51:35.067Z,1019.73
2018-10-16T04:53:02.401Z,1019.72
2018-10-16T04:54:29.607Z,1019.73
2018-10-16T04:55:57.003Z,1019.74
2018-10-16T04:57:24.394Z,1019.75
2018-10-16T04:58:51.797Z,1019.80
2018-10-16T05:00:19.145Z,1019.81
2018-10-16T05:01:46.426Z,1019.79
2018-10-16T05:03:13.825Z,1019.77
2018-10-16T05:04:41.258Z,1019.74
2018-10-16T05:06:08.544Z,1019.74
2018-10-16T05:07:35.943Z,1019.73
2018-10-16T05:09:03.225Z,1019.74
2018-10-16T05:10:30.486Z,1019.75
2018-10-16T05:11:57.904Z,1019.76
2018-10-16T05:13:25.226Z,1019.79
2018-10-16T05:14:52.570Z,1019.80
2018-10-16T05:16:19.835Z,1019.82
2018-10-16T05:17:47.172Z,1019.86
2018-10-16T05:19:14.521Z,1019.89
2018-10-16T05:20:41.749Z,1019.90
2018-10-16T05:22:09.116Z,1019.93
2018-10-16T05:23:36.268Z,1019.94
2018-10-16T05:25:03.415Z,1019.93
2018-10-16T05:26:30.792Z,1019.91
2018-10-16T05:27:58.238Z,1019.90
2018-10-16T05:29:25.558Z,1019.88
2018-10-16T05:30:52.869Z,1019.87
2018-10-16T05:32:20.266Z,1019.90
2018-10-16T05:33:47.818Z,1019.93
2018-10-16T05:35:15.436Z,1019.94
2018-10-16T05:36:42.781Z,1019.97
2018-10-16T05:38:10.387Z,1020.00
2018-10-16T05:39:37.613Z,1020.04
2018-10-16T05:41:04.992Z,1020.05
2018-10-16T05:42:32.369Z,1020.07
2018-10-16T05:43:59.777Z,1020.08
2018-10-16T05:45:27.060Z,1020.10
2018-10-16T05:46:54.404Z,1020.11
2018-10-16T05:48:21.770Z,1020.14
2018-10-16T05:49:49.235Z,1020.14
2018-10-16T05:51:16.535Z,1020.13
2018-10-16T05:52:43.813Z,1020.12
2018-10-16T05:54:11.542Z,1020.12
2018-10-16T05:55:38.798Z,1020.12
2018-10-16T05:57:06.157Z,1020.16
2018-10-16T05:58:33.671Z,1020.19
2018-10-16T06:00:00.884Z,1020.23
2018-10-16T06:01:28.447Z,1020.24
2018-10-16T06:02:55.889Z,1020.24
2018-10-16T06:04:23.148Z,1020.27
2018-10-16T06:05:50.595Z,1020.30
2018-10-16T06:07:17.787Z,1020.33
2018-10-16T06:08:44.761Z,1020.35
2018-10-16T06:10:15.083Z,1020.33
2018-10-16T06:11:39.343Z,1020.36
2018-10-16T06:13:06.645Z,1020.35
2018-10-16T06:14:34.049Z,1020.34
2018-10-16T06:16:01.244Z,1020.34
2018-10-16T06:17:28.697Z,1020.36
2018-10-16T06:18:56.048Z,1020.36
2018-10-16T06:20:23.409Z,1020.38
2018-10-16T06:21:50.666Z,1020.35
2018-10-16T06:23:18.068Z,1020.36
2018-10-16T06:24:45.309Z,1020.38
2018-10-16T06:26:12.520Z,1020.41
2018-10-16T06:27:39.974Z,1020.44
2018-10-16T06:29:07.275Z,1020.44
2018-10-16T06:30:34.695Z,1020.46
2018-10-16T06:32:02.048Z,1020.47
2018-10-16T06:33:29.447Z,1020.50
2018-10-16T06:34:56.793Z,1020.48
2018-10-16T06:36:24.188Z,1020.47
2018-10-16T06:37:51.561Z,1020.47
2018-10-16T06:39:18.894Z,1020.45
2018-10-16T06:40:46.168Z,1020.47
2018-10-16T06:42:13.425Z,1020.49
2018-10-16T06:43:40.837Z,1020.47
2018-10-16T06:45:08.346Z,1020.46
2018-10-16T06:46:35.608Z,1020.46
2018-10-16T06:48:02.784Z,1020.49
2018-10-16T06:49:30.236Z,1020.54
2018-10-16T06:50:57.349Z,1020.55
2018-10-16T06:52:24.761Z,1020.56
2018-10-16T06:53:52.141Z,1020.55
2018-10-16T06:55:19.503Z,1020.56
2018-10-16T06:56:46.782Z,1020.53
2018-10-16T06:58:14.231Z,1020.55
2018-10-16T06:59:41.521Z,1020.55
2018-10-16T07:01:08.572Z,1020.55
2018-10-16T07:02:35.874Z,1020.56
2018-10-16T07:04:03.152Z,1020.59
2018-10-16T07:05:30.471Z,1020.61
2018-10-16T07:06:58.139Z,1020.61
2018-10-16T07:08:24.859Z,1020.60
2018-10-16T07:09:52.206Z,1020.59
2018-10-16T07:11:19.553Z,1020.58
2018-10-16T07:12:46.861Z,1020.59
2018-10-16T07:14:13.987Z,1020.58
2018-10-16T07:15:41.439Z,1020.58
2018-10-16T07:17:08.680Z,1020.56
2018-10-16T07:18:35.987Z,1020.59
2018-10-16T07:20:03.226Z,1020.59
2018-10-16T07:21:30.584Z,1020.57
2018-10-16T07:22:57.933Z,1020.61
2018-10-16T07:24:25.276Z,1020.63
2018-10-16T07:25:52.593Z,1020.65
2018-10-16T07:27:19.999Z,1020.64
2018-10-16T07:28:47.453Z,1020.74
2018-10-16T07:30:14.989Z,1020.75
2018-10-16T07:31:42.079Z,1020.77
2018-10-16T07:33:09.449Z,1020.79
2018-10-16T07:34:36.778Z,1020.80
2018-10-16T07:36:04.155Z,1020.81
2018-10-16T07:37:31.517Z,1020.80
2018-10-16T07:38:58.892Z,1020.80
2018-10-16T07:40:26.012Z,1020.78
2018-10-16T07:41:53.570Z,1020.78
2018-10-16T07:43:20.804Z,1020.76
2018-10-16T07:44:48.157Z,1020.77
2018-10-16T07:46:15.480Z,1020.75
2018-10-16T07:47:42.764Z,1020.75
2018-10-16T07:49:09.632Z,1020.77
2018-10-16T07:50:36.841Z,1020.78
2018-10-16T07:52:04.289Z,1020.75
2018-10-16T07:53:30.553Z,1020.74
2018-10-16T07:54:58.168Z,1020.76
2018-10-16T07:56:24.919Z,1020.76
2018-10-16T07:57:52.236Z,1020.74
2018-10-16T07:59:19.585Z,1020.72
2018-10-16T08:00:46.459Z,1020.72
2018-10-16T08:02:13.769Z,1020.70
2018-10-16T08:03:41.195Z,1020.70
2018-10-16T08:05:08.349Z,1020.72
2018-10-16T08:06:35.717Z,1020.72
2018-10-16T08:08:02.966Z,1020.73
2018-10-16T08:09:33.223Z,1020.75
2018-10-16T08:10:57.701Z,1020.77
2018-10-16T08:12:25.073Z,1020.75
2018-10-16T08:13:52.427Z,1020.78
2018-10-16T08:15:19.827Z,1020.79
2018-10-16T08:16:47.168Z,1020.81
2018-10-16T08:18:14.419Z,1020.82
2018-10-16T08:19:41.877Z,1020.81
2018-10-16T08:21:09.225Z,1020.81
2018-10-16T08:22:36.707Z,1020.80
2018-10-16T08:24:03.872Z,1020.81
2018-10-16T08:25:31.231Z,1020.80
2018-10-16T08:26:58.981Z,1020.78
2018-10-16T08:28:26.136Z,1020.80
2018-10-16T08:29:53.572Z,1020.80
2018-10-16T08:31:20.985Z,1020.82
2018-10-16T08:32:48.384Z,1020.85
2018-10-16T08:34:15.870Z,1020.86
2018-10-16T08:35:43.258Z,1020.88
2018-10-16T08:37:10.654Z,1020.90
2018-10-16T08:38:37.936Z,1020.92
2018-10-16T08:40:05.378Z,1020.92
2018-10-16T08:41:32.904Z,1020.92
2018-10-16T08:43:00.214Z,1020.96
2018-10-16T08:44:27.552Z,1020.98
2018-10-16T08:45:54.897Z,1021.01
2018-10-16T08:47:22.500Z,1021.01
2018-10-16T08:48:49.787Z,1021.02
2018-10-16T08:50:16.988Z,1021.01
2018-10-16T08:51:44.304Z,1021.04
2018-10-16T08:53:11.764Z,1021.07
2018-10-16T08:54:39.120Z,1021.08
2018-10-16T08:56:06.487Z,1021.05
2018-10-16T08:57:33.865Z,1021.04
2018-10-16T08:59:01.093Z,1021.03
2018-10-16T09:00:28.658Z,1021.05
2018-10-16T09:01:55.739Z,1021.06
2018-10-16T09:03:22.853Z,1021.05
2018-10-16T09:04:50.068Z,1021.05
2018-10-16T09:06:17.738Z,1021.04
2018-10-16T09:07:44.991Z,1021.07
2018-10-16T09:09:12.455Z,1021.06
2018-10-16T09:10:39.663Z,1021.07
2018-10-16T09:12:06.808Z,1021.08
2018-10-16T09:13:34.241Z,1021.10
2018-10-16T09:15:01.818Z,1021.11
2018-10-16T09:16:29.179Z,1021.15
2018-10-16T09:17:56.589Z,1021.13
2018-10-16T09:19:24.092Z,1021.11
2018-10-16T09:20:51.520Z,1021.12
2018-10-16T09:22:18.944Z,1021.14
2018-10-16T09:23:46.532Z,1021.11
2018-10-16T09:25:14.198Z,1021.10
2018-10-16T09:26:41.571Z,1021.06
2018-10-16T09:28:09.080Z,1021.08
2018-10-16T09:29:36.537Z,1021.08
2018-10-16T09:31:03.672Z,1021.07
2018-10-16T09:32:30.993Z,1021.04
2018-10-16T09:33:58.124Z,1021.07
2018-10-16T09:35:25.640Z,1021.04
2018-10-16T09:36:53.066Z,1021.05
2018-10-16T09:38:20.333Z,1021.08
2018-10-16T09:39:47.264Z,1021.08
2018-10-16T09:41:14.385Z,1021.09
2018-10-16T09:42:41.436Z,1021.09
2018-10-16T09:44:08.909Z,1021.07
2018-10-16T09:45:36.267Z,1021.09
2018-10-16T09:47:03.179Z,1021.09
2018-10-16T09:48:30.136Z,1021.09
2018-10-16T09:49:57.525Z,1021.10
2018-10-16T09:51:24.875Z,1021.06
2018-10-16T09:52:51.963Z,1021.04
2018-10-16T09:54:19.257Z,1021.01
2018-10-16T09:55:46.458Z,1021.01
2018-10-16T09:57:13.701Z,1021.01
2018-10-16T09:58:40.577Z,1021.02
2018-10-16T10:00:07.713Z,1020.98
2018-10-16T10:01:34.708Z,1020.97
2018-10-16T10:03:01.732Z,1020.97
2018-10-16T10:04:28.882Z,1020.97
2018-10-16T10:05:56.070Z,1020.97
2018-10-16T10:07:23.358Z,1020.97
2018-10-16T10:08:50.787Z,1020.99
2018-10-16T10:10:18.291Z,1020.97
2018-10-16T10:11:45.532Z,1020.95
2018-10-16T10:13:13.009Z,1020.94
2018-10-16T10:14:40.441Z,1020.97
2018-10-16T10:16:07.954Z,1020.95
2018-10-16T10:17:35.432Z,1020.95
2018-10-16T10:19:02.563Z,1020.93
2018-10-16T10:20:29.900Z,1020.94
2018-10-16T10:21:57.349Z,1020.91
2018-10-16T10:23:24.640Z,1020.89
2018-10-16T10:24:52.141Z,1020.90
2018-10-16T10:26:19.421Z,1020.89
2018-10-16T10:27:46.795Z,1020.86
2018-10-16T10:29:14.144Z,1020.85
2018-10-16T10:30:41.519Z,1020.84
2018-10-16T10:32:08.941Z,1020.85
2018-10-16T10:33:35.823Z,1020.84
2018-10-16T10:35:03.461Z,1020.84
2018-10-16T10:36:30.949Z,1020.83
2018-10-16T10:37:58.143Z,1020.82
2018-10-16T10:39:25.754Z,1020.84
2018-10-16T10:40:52.795Z,1020.82
2018-10-16T10:42:19.970Z,1020.83
2018-10-16T10:43:47.011Z,1020.82
2018-10-16T10:45:14.162Z,1020.79
2018-10-16T10:46:41.606Z,1020.78
2018-10-16T10:48:09.054Z,1020.75
2018-10-16T10:49:36.675Z,1020.74
2018-10-16T10:51:04.422Z,1020.77
2018-10-16T10:52:31.569Z,1020.75
2018-10-16T10:53:58.857Z,1020.71
2018-10-16T10:55:26.367Z,1020.70
2018-10-16T10:56:53.790Z,1020.69
2018-10-16T10:58:21.117Z,1020.68
2018-10-16T10:59:48.661Z,1020.67
2018-10-16T11:01:16.190Z,1020.64
2018-10-16T11:02:43.755Z,1020.59
2018-10-16T11:04:11.202Z,1020.54
2018-10-16T11:05:38.630Z,1020.54
2018-10-16T11:07:06.135Z,1020.52
2018-10-16T11:08:33.552Z,1020.45
2018-10-16T11:10:01.018Z,1020.43
2018-10-16T11:11:28.590Z,1020.41
2018-10-16T11:12:55.987Z,1020.39
2018-10-16T11:14:23.561Z,1020.40
2018-10-16T11:15:51.288Z,1020.40
2018-10-16T11:17:18.661Z,1020.42
2018-10-16T11:18:45.986Z,1020.42
2018-10-16T11:20:13.327Z,1020.42
2018-10-16T11:21:40.754Z,1020.41
2018-10-16T11:23:08.308Z,1020.42
2018-10-16T11:24:35.821Z,1020.40
2018-10-16T11:26:03.198Z,1020.40
2018-10-16T11:27:30.749Z,1020.37
2018-10-16T11:28:58.272Z,1020.40
2018-10-16T11:30:25.986Z,1020.40
2018-10-16T11:31:53.375Z,1020.41
2018-10-16T11:33:20.657Z,1020.40
2018-10-16T11:34:48.348Z,1020.40
2018-10-16T11:36:15.839Z,1020.39
2018-10-16T11:37:43.339Z,1020.40
2018-10-16T11:39:10.989Z,1020.38
2018-10-16T11:40:38.372Z,1020.38
2018-10-16T11:42:05.977Z,1020.35
2018-10-16T11:43:33.426Z,1020.34
2018-10-16T11:45:00.910Z,1020.35
2018-10-16T11:46:28.503Z,1020.35
2018-10-16T11:47:56.100Z,1020.32
2018-10-16T11:49:23.735Z,1020.30
2018-10-16T11:50:51.150Z,1020.27
2018-10-16T11:52:18.871Z,1020.28
2018-10-16T11:53:46.477Z,1020.27
2018-10-16T11:55:13.949Z,1020.31
2018-10-16T11:56:41.975Z,1020.31
2018-10-16T11:58:09.447Z,1020.31
2018-10-16T11:59:36.940Z,1020.33
2018-10-16T12:01:04.420Z,1020.33
2018-10-16T12:02:31.893Z,1020.35
2018-10-16T12:03:59.529Z,1020.37
2018-10-16T12:05:27.055Z,1020.37
2018-10-16T12:06:54.662Z,1020.36
2018-10-16T12:08:22.226Z,1020.38
2018-10-16T12:09:49.794Z,1020.36
2018-10-16T12:11:17.387Z,1020.35
2018-10-16T12:12:44.980Z,1020.39
2018-10-16T12:14:12.606Z,1020.37
2018-10-16T12:15:40.104Z,1020.35
2018-10-16T12:17:07.730Z,1020.35
2018-10-16T12:18:35.135Z,1020.34
2018-10-16T12:20:02.862Z,1020.31
2018-10-16T12:21:30.286Z,1020.28
2018-10-16T12:22:57.886Z,1020.28
2018-10-16T12:24:25.328Z,1020.32
2018-10-16T12:25:52.836Z,1020.36
2018-10-16T12:27:20.398Z,1020.34
2018-10-16T12:28:47.901Z,1020.37
2018-10-16T12:30:15.447Z,1020.39
2018-10-16T12:31:42.974Z,1020.40
2018-10-16T12:33:10.706Z,1020.42
2018-10-16T12:34:38.073Z,1020.40
2018-10-16T12:36:05.566Z,1020.37
2018-10-16T12:37:33.131Z,1020.33
2018-10-16T12:39:00.458Z,1020.30
2018-10-16T12:40:28.134Z,1020.28
2018-10-16T12:41:55.484Z,1020.25
2018-10-16T12:43:23.086Z,1020.28
2018-10-16T12:44:50.663Z,1020.29
2018-10-16T12:46:18.263Z,1020.27
2018-10-16T12:47:45.790Z,1020.25
2018-10-16T12:49:13.409Z,1020.25
2018-10-16T12:50:40.985Z,1020.24
2018-10-16T12:52:08.538Z,1020.22
2018-10-16T12:53:36.249Z,1020.23
2018-10-16T12:55:03.692Z,1020.22
2018-10-16T12:56:31.527Z,1020.19
2018-10-16T12:57:59.225Z,1020.19
2018-10-16T12:59:26.744Z,1020.19
2018-10-16T13:00:54.409Z,1020.20
2018-10-16T13:02:25.105Z,1020.21
2018-10-16T13:03:49.725Z,1020.22
2018-10-16T13:05:17.563Z,1020.21
2018-10-16T13:06:44.945Z,1020.22
2018-10-16T13:08:12.674Z,1020.22
2018-10-16T13:09:40.176Z,1020.21
2018-10-16T13:11:07.720Z,1020.22
2018-10-16T13:12:35.066Z,1020.22
2018-10-16T13:14:02.738Z,1020.21
2018-10-16T13:15:30.252Z,1020.17
2018-10-16T13:16:57.856Z,1020.21
2018-10-16T13:18:25.392Z,1020.19
2018-10-16T13:19:53.047Z,1020.18
2018-10-16T13:21:20.715Z,1020.17
2018-10-16T13:22:48.279Z,1020.15
2018-10-16T13:24:15.866Z,1020.13
2018-10-16T13:25:43.534Z,1020.14
2018-10-16T13:27:10.977Z,1020.13
2018-10-16T13:28:38.616Z,1020.12
2018-10-16T13:30:06.145Z,1020.13
2018-10-16T13:31:33.522Z,1020.12
2018-10-16T13:33:01.095Z,1020.13
2018-10-16T13:34:28.788Z,1020.15
2018-10-16T13:35:56.236Z,1020.19
2018-10-16T13:37:23.770Z,1020.19
2018-10-16T13:38:51.330Z,1020.16
2018-10-16T13:40:18.990Z,1020.11
2018-10-16T13:41:46.459Z,1020.09
2018-10-16T13:43:13.970Z,1020.11
2018-10-16T13:44:41.505Z,1020.12
2018-10-16T13:46:09.239Z,1020.14
2018-10-16T13:47:36.578Z,1020.15
2018-10-16T13:49:04.075Z,1020.16
2018-10-16T13:50:31.698Z,1020.17
2018-10-16T13:51:59.361Z,1020.17
2018-10-16T13:53:26.831Z,1020.19
2018-10-16T13:54:54.449Z,1020.16
2018-10-16T13:56:22.173Z,1020.18
2018-10-16T13:57:49.771Z,1020.18
2018-10-16T13:59:17.298Z,1020.19
2018-10-16T14:00:45.034Z,1020.18
2018-10-16T14:02:12.552Z,1020.20
2018-10-16T14:03:40.116Z,1020.19
2018-10-16T14:05:07.749Z,1020.24
2018-10-16T14:06:35.494Z,1020.24
2018-10-16T14:08:03.155Z,1020.25
2018-10-16T14:09:30.498Z,1020.24
2018-10-16T14:10:58.020Z,1020.22
2018-10-16T14:12:25.536Z,1020.23
2018-10-16T14:13:53.064Z,1020.27
2018-10-16T14:15:20.445Z,1020.30
2018-10-16T14:16:47.939Z,1020.31
2018-10-16T14:18:15.369Z,1020.30
2018-10-16T14:19:42.957Z,1020.33
2018-10-16T14:21:10.653Z,1020.33
2018-10-16T14:22:38.133Z,1020.33
2018-10-16T14:24:05.680Z,1020.35
2018-10-16T14:25:33.371Z,1020.34
2018-10-16T14:27:00.978Z,1020.35
2018-10-16T14:28:28.793Z,1020.34
2018-10-16T14:29:56.338Z,1020.37
2018-10-16T14:31:23.908Z,1020.35
2018-10-16T14:32:51.568Z,1020.34
2018-10-16T14:34:19.325Z,1020.34
2018-10-16T14:35:46.883Z,1020.32
2018-10-16T14:37:14.446Z,1020.34
2018-10-16T14:38:42.349Z,1020.35
2018-10-16T14:40:10.034Z,1020.36
2018-10-16T14:41:37.265Z,1020.38
2018-10-16T14:43:04.744Z,1020.35
2018-10-16T14:44:32.389Z,1020.36
2018-10-16T14:45:59.883Z,1020.37
2018-10-16T14:47:27.357Z,1020.38
2018-10-16T14:48:54.931Z,1020.38
2018-10-16T14:50:22.276Z,1020.42
2018-10-16T14:51:49.838Z,1020.40
2018-10-16T14:53:17.413Z,1020.39
2018-10-16T14:54:44.994Z,1020.41
2018-10-16T14:56:12.712Z,1020.42
2018-10-16T14:57:40.232Z,1020.42
2018-10-16T14:59:07.600Z,1020.43
2018-10-16T15:00:35.089Z,1020.43
2018-10-16T15:02:02.609Z,1020.44
2018-10-16T15:03:30.317Z,1020.47
2018-10-16T15:04:57.897Z,1020.49
2018-10-16T15:06:25.386Z,1020.49
2018-10-16T15:07:52.880Z,1020.52
2018-10-16T15:09:20.514Z,1020.53
2018-10-16T15:10:48.047Z,1020.57
2018-10-16T15:12:15.523Z,1020.57
2018-10-16T15:13:43.111Z,1020.60
2018-10-16T15:15:10.885Z,1020.59
2018-10-16T15:16:38.504Z,1020.60
2018-10-16T15:18:06.008Z,1020.60
2018-10-16T15:19:33.600Z,1020.59
2018-10-16T15:21:01.059Z,1020.61
2018-10-16T15:22:28.584Z,1020.62
2018-10-16T15:23:56.239Z,1020.62
2018-10-16T15:25:23.723Z,1020.63
2018-10-16T15:26:51.219Z,1020.64
2018-10-16T15:28:18.557Z,1020.64
2018-10-16T15:29:45.839Z,1020.64
2018-10-16T15:31:12.958Z,1020.64
2018-10-16T15:32:40.575Z,1020.65
2018-10-16T15:34:08.221Z,1020.65
2018-10-16T15:35:35.578Z,1020.66
2018-10-16T15:37:03.138Z,1020.68
2018-10-16T15:38:30.712Z,1020.68
2018-10-16T15:39:58.337Z,1020.69
2018-10-16T15:41:25.631Z,1020.72
2018-10-16T15:42:53.343Z,1020.72
2018-10-16T15:44:20.807Z,1020.72
2018-10-16T15:45:48.412Z,1020.74
2018-10-16T15:47:15.913Z,1020.75
2018-10-16T15:48:43.421Z,1020.75
2018-10-16T15:50:11.155Z,1020.75
2018-10-16T15:51:38.707Z,1020.72
2018-10-16T15:53:06.369Z,1020.74
2018-10-16T15:54:33.681Z,1020.74
2018-10-16T15:56:01.392Z,1020.77
2018-10-16T15:57:29.068Z,1020.76
2018-10-16T15:58:56.762Z,1020.76
2018-10-16T16:00:24.250Z,1020.76
2018-10-16T16:01:51.921Z,1020.79
2018-10-16T16:03:19.456Z,1020.82
2018-10-16T16:04:46.967Z,1020.83
2018-10-16T16:06:14.668Z,1020.84
2018-10-16T16:07:42.067Z,1020.87
2018-10-16T16:09:09.517Z,1020.92
2018-10-16T16:10:37.151Z,1020.94
2018-10-16T16:12:04.401Z,1020.94
2018-10-16T16:13:31.979Z,1020.94
2018-10-16T16:14:59.524Z,1020.95
2018-10-16T16:16:26.947Z,1020.99
2018-10-16T16:17:54.664Z,1020.97
2018-10-16T16:19:22.059Z,1020.99
2018-10-16T16:20:49.576Z,1020.99
2018-10-16T16:22:16.903Z,1021.01
2018-10-16T16:23:44.287Z,1021.02
2018-10-16T16:25:11.844Z,1021.03
2018-10-16T16:26:39.515Z,1021.01
2018-10-16T16:28:07.143Z,1021.02
2018-10-16T16:29:34.585Z,1021.05
2018-10-16T16:31:02.146Z,1021.08
2018-10-16T16:32:29.755Z,1021.11
2018-10-16T16:33:57.437Z,1021.11
2018-10-16T16:35:24.908Z,1021.12
2018-10-16T16:36:52.348Z,1021.14
2018-10-16T16:38:19.743Z,1021.14
2018-10-16T16:39:47.168Z,1021.15
2018-10-16T16:41:14.872Z,1021.14
2018-10-16T16:42:42.192Z,1021.15
2018-10-16T16:44:10.924Z,1021.17
2018-10-16T16:45:37.371Z,1021.16
2018-10-16T16:47:04.783Z,1021.14
2018-10-16T16:48:32.337Z,1021.18
2018-10-16T16:49:59.952Z,1021.18
2018-10-16T16:51:27.049Z,1021.21
2018-10-16T16:52:54.600Z,1021.22
2018-10-16T16:54:22.198Z,1021.24
2018-10-16T16:55:49.691Z,1021.24
2018-10-16T16:57:17.322Z,1021.25
2018-10-16T16:58:44.657Z,1021.29
2018-10-16T17:00:12.273Z,1021.31
2018-10-16T17:01:39.897Z,1021.31
2018-10-16T17:03:07.252Z,1021.30
2018-10-16T17:04:35.020Z,1021.32
2018-10-16T17:06:02.304Z,1021.33
2018-10-16T17:07:29.921Z,1021.32
2018-10-16T17:08:57.487Z,1021.32
2018-10-16T17:10:24.852Z,1021.33
2018-10-16T17:11:52.348Z,1021.34
2018-10-16T17:13:19.772Z,1021.37
2018-10-16T17:14:47.196Z,1021.38
2018-10-16T17:16:14.511Z,1021.41
2018-10-16T17:17:41.991Z,1021.42
2018-10-16T17:19:09.477Z,1021.42
2018-10-16T17:20:36.962Z,1021.45
2018-10-16T17:22:04.592Z,1021.44
2018-10-16T17:23:32.063Z,1021.46
2018-10-16T17:25:00.047Z,1021.45
2018-10-16T17:26:27.470Z,1021.48
2018-10-16T17:27:54.726Z,1021.48
2018-10-16T17:29:22.181Z,1021.50
2018-10-16T17:30:49.820Z,1021.53
2018-10-16T17:32:17.185Z,1021.54
2018-10-16T17:33:44.726Z,1021.55
2018-10-16T17:35:12.289Z,1021.57
2018-10-16T17:36:39.942Z,1021.57